createdAt,value
2019-01-31T00:01:15.201Z,17.55
2019-01-31T00:04:03.157Z,18.42
2019-01-31T00:06:42.311Z,10.10
2019-01-31T00:09:25.431Z,15.55
2019-01-31T00:12:10.679Z,17.60
2019-01-31T00:14:47.244Z,15.13
2019-01-31T00:17:38.461Z,15.63
2019-01-31T00:20:26.352Z,14.68
2019-01-31T00:23:11.480Z,19.40
2019-01-31T00:25:56.737Z,22.70
2019-01-31T00:28:38.776Z,14.93
2019-01-31T00:31:27.993Z,18.37
2019-01-31T00:34:23.524Z,21.93
2019-01-31T00:37:13.436Z,22.02
2019-01-31T00:39:52.033Z,17.00
2019-01-31T00:42:33.993Z,23.83
2019-01-31T00:45:13.045Z,18.15
2019-01-31T00:47:57.113Z,15.93
2019-01-31T00:50:45.103Z,17.67
2019-01-31T00:53:41.889Z,17.85
2019-01-31T00:56:38.211Z,21.87
2019-01-31T00:59:13.098Z,14.00
2019-01-31T01:02:17.749Z,9.70
2019-01-31T01:05:03.490Z,17.85
2019-01-31T01:07:56.245Z,11.73
2019-01-31T01:10:54.903Z,17.00
2019-01-31T01:13:48.989Z,14.50
2019-01-31T01:16:24.606Z,14.87
2019-01-31T01:19:03.520Z,21.87
2019-01-31T01:21:54.580Z,21.20
2019-01-31T01:24:39.633Z,16.13
2019-01-31T01:27:12.508Z,19.03
2019-01-31T01:30:00.376Z,25.37
2019-01-31T01:32:51.741Z,25.83
2019-01-31T01:35:27.547Z,20.20
2019-01-31T01:38:15.316Z,17.67
2019-01-31T01:41:11.017Z,13.83
2019-01-31T01:44:13.678Z,24.13
2019-01-31T01:47:04.537Z,17.83
2019-01-31T01:49:37.392Z,15.13
2019-01-31T01:52:31.468Z,14.53
2019-01-31T01:55:31.549Z,12.93
2019-01-31T01:58:10.889Z,12.67
2019-01-31T02:00:58.849Z,14.97
2019-01-31T02:03:40.639Z,14.80
2019-01-31T02:06:31.728Z,13.17
2019-01-31T02:09:36.047Z,13.27
2019-01-31T02:12:26.747Z,15.73
2019-01-31T02:15:22.532Z,14.43
2019-01-31T02:18:04.240Z,13.03
2019-01-31T02:21:11.750Z,15.10
2019-01-31T02:24:06.157Z,10.53
2019-01-31T02:26:39.137Z,11.27
2019-01-31T02:29:32.822Z,12.13
2019-01-31T02:32:05.880Z,16.73
2019-01-31T02:34:58.088Z,14.17
2019-01-31T02:37:42.952Z,11.33
2019-01-31T02:40:38.210Z,15.00
2019-01-31T02:43:26.172Z,17.20
2019-01-31T02:46:08.063Z,18.60
2019-01-31T02:48:41.124Z,33.30
2019-01-31T02:51:47.369Z,15.73
2019-01-31T02:54:29.161Z,13.27
2019-01-31T02:57:14.051Z,18.23
2019-01-31T02:59:50.153Z,11.40
2019-01-31T03:02:29.000Z,13.20
2019-01-31T03:05:07.985Z,15.87
2019-01-31T03:07:46.972Z,10.03
2019-01-31T03:10:40.724Z,10.57
2019-01-31T03:13:25.395Z,11.73
2019-01-31T03:16:21.961Z,13.57
2019-01-31T03:19:03.418Z,13.13
2019-01-31T03:21:52.576Z,10.90
2019-01-31T03:24:50.964Z,14.53
2019-01-31T03:27:38.992Z,11.17
2019-01-31T03:30:40.570Z,10.80
2019-01-31T03:33:13.535Z,12.87
2019-01-31T03:35:46.352Z,14.03
2019-01-31T03:38:25.365Z,13.43
2019-01-31T03:41:07.289Z,11.43
2019-01-31T03:43:49.187Z,12.23
2019-01-31T03:46:28.178Z,13.07
2019-01-31T03:49:10.108Z,11.93
2019-01-31T03:52:02.496Z,11.63
2019-01-31T03:54:51.746Z,11.17
2019-01-31T03:57:42.572Z,12.23
2019-01-31T04:00:24.412Z,19.83
2019-01-31T04:03:02.897Z,18.47
2019-01-31T04:05:41.850Z,13.37
2019-01-31T04:08:12.606Z,13.97
2019-01-31T04:10:42.991Z,11.23
2019-01-31T04:13:13.313Z,11.90
2019-01-31T04:15:43.658Z,11.57
2019-01-31T04:18:14.125Z,12.70
2019-01-31T04:20:44.624Z,13.67
2019-01-31T04:23:15.077Z,11.77
2019-01-31T04:25:45.400Z,12.60
2019-01-31T04:28:15.836Z,17.97
2019-01-31T04:30:46.183Z,12.40
2019-01-31T04:33:16.534Z,15.03
2019-01-31T04:35:47.022Z,9.53
2019-01-31T04:38:19.707Z,8.60
2019-01-31T04:40:49.179Z,11.40
2019-01-31T04:43:19.552Z,10.47
2019-01-31T04:45:49.930Z,11.90
2019-01-31T04:48:20.259Z,11.40
2019-01-31T04:50:50.740Z,10.23
2019-01-31T04:53:21.034Z,9.00
2019-01-31T04:55:51.438Z,9.70
2019-01-31T04:58:21.861Z,10.87
2019-01-31T05:00:52.225Z,13.90
2019-01-31T05:03:41.684Z,12.83
2019-01-31T05:06:12.045Z,10.63
2019-01-31T05:08:42.987Z,14.37
2019-01-31T05:11:13.503Z,13.50
2019-01-31T05:13:44.696Z,9.57
2019-01-31T05:16:15.041Z,10.90
2019-01-31T05:18:45.455Z,9.97
2019-01-31T05:21:15.743Z,12.37
2019-01-31T05:23:46.130Z,15.70
2019-01-31T05:26:16.435Z,20.87
2019-01-31T05:28:46.815Z,24.77
2019-01-31T05:31:17.419Z,24.90
2019-01-31T05:33:47.800Z,26.60
2019-01-31T05:36:18.111Z,21.10
2019-01-31T05:38:48.551Z,17.10
2019-01-31T05:41:18.894Z,16.23
2019-01-31T05:43:49.258Z,11.53
2019-01-31T05:46:19.673Z,9.00
2019-01-31T05:48:50.051Z,10.27
2019-01-31T05:51:20.327Z,11.17
2019-01-31T05:53:50.695Z,13.40
2019-01-31T05:56:21.058Z,9.07
2019-01-31T05:58:51.404Z,10.13
2019-01-31T06:01:21.909Z,9.13
2019-01-31T06:03:52.216Z,10.90
2019-01-31T06:06:26.218Z,11.90
2019-01-31T06:08:56.965Z,10.27
2019-01-31T06:11:27.326Z,9.23
2019-01-31T06:13:57.740Z,14.07
2019-01-31T06:16:28.088Z,11.43
2019-01-31T06:18:58.412Z,14.13
2019-01-31T06:21:28.998Z,14.70
2019-01-31T06:23:59.369Z,16.33
2019-01-31T06:26:29.670Z,14.40
2019-01-31T06:29:00.047Z,15.90
2019-01-31T06:31:30.431Z,14.53
2019-01-31T06:34:00.795Z,12.27
2019-01-31T06:36:31.292Z,14.40
2019-01-31T06:39:01.635Z,15.30
2019-01-31T06:41:31.990Z,13.27
2019-01-31T06:44:02.428Z,16.30
2019-01-31T06:46:32.707Z,13.07
2019-01-31T06:49:03.007Z,11.43
2019-01-31T06:51:33.487Z,18.07
2019-01-31T06:54:03.767Z,18.43
2019-01-31T06:56:34.185Z,13.47
2019-01-31T06:59:04.550Z,13.93
2019-01-31T07:01:34.900Z,20.03
2019-01-31T07:04:06.230Z,17.43
2019-01-31T07:06:36.529Z,15.57
2019-01-31T07:09:09.475Z,15.40
2019-01-31T07:11:39.838Z,17.37
2019-01-31T07:14:10.168Z,18.77
2019-01-31T07:16:40.589Z,15.90
2019-01-31T07:19:10.953Z,11.87
2019-01-31T07:21:41.305Z,9.90
2019-01-31T07:24:11.735Z,13.00
2019-01-31T07:26:42.101Z,14.07
2019-01-31T07:29:12.431Z,15.13
2019-01-31T07:31:42.807Z,11.50
2019-01-31T07:34:13.130Z,9.73
2019-01-31T07:36:43.573Z,11.03
2019-01-31T07:39:13.935Z,9.47
2019-01-31T07:41:44.269Z,9.70
2019-01-31T07:44:14.729Z,8.00
2019-01-31T07:46:45.157Z,9.93
2019-01-31T07:49:15.502Z,8.53
2019-01-31T07:51:45.926Z,10.60
2019-01-31T07:54:16.285Z,9.07
2019-01-31T07:56:46.640Z,8.70
2019-01-31T07:59:17.047Z,8.93
2019-01-31T08:01:47.418Z,11.63
2019-01-31T08:04:17.717Z,19.43
2019-01-31T08:06:48.158Z,9.03
2019-01-31T08:09:18.494Z,15.87
2019-01-31T08:11:52.751Z,10.67
2019-01-31T08:14:21.083Z,12.20
2019-01-31T08:16:51.421Z,16.20
2019-01-31T08:19:21.733Z,11.60
2019-01-31T08:21:52.099Z,12.57
2019-01-31T08:24:22.411Z,13.93
2019-01-31T08:26:55.633Z,13.00
2019-01-31T08:29:25.209Z,15.43
2019-01-31T08:31:55.564Z,11.20
2019-01-31T08:34:25.906Z,9.63
2019-01-31T08:36:56.334Z,11.47
2019-01-31T08:39:26.714Z,10.00
2019-01-31T08:42:03.550Z,10.50
2019-01-31T08:44:28.916Z,10.50
2019-01-31T08:46:59.264Z,10.00
2019-01-31T08:49:29.620Z,8.90
2019-01-31T08:52:00.146Z,12.47
2019-01-31T08:54:30.500Z,9.80
2019-01-31T08:57:00.853Z,9.63
2019-01-31T08:59:32.636Z,10.07
2019-01-31T09:02:03.139Z,12.23
2019-01-31T09:04:33.554Z,8.57
2019-01-31T09:07:04.004Z,10.87
2019-01-31T09:09:34.366Z,14.10
2019-01-31T09:12:15.083Z,11.00
2019-01-31T09:14:37.307Z,11.80
2019-01-31T09:17:07.592Z,10.77
2019-01-31T09:19:37.907Z,8.73
2019-01-31T09:22:08.923Z,11.17
2019-01-31T09:24:41.818Z,11.03
2019-01-31T09:27:31.819Z,9.67
2019-01-31T09:30:25.706Z,11.03
2019-01-31T09:33:10.592Z,9.70
2019-01-31T09:35:43.497Z,10.67
2019-01-31T09:38:36.041Z,11.50
2019-01-31T09:41:27.126Z,9.47
2019-01-31T09:44:05.676Z,12.70
2019-01-31T09:46:41.601Z,14.13
2019-01-31T09:49:40.296Z,8.50
2019-01-31T09:52:22.296Z,15.23
2019-01-31T09:55:04.140Z,13.60
2019-01-31T09:57:42.637Z,11.40
2019-01-31T10:00:27.009Z,12.53
2019-01-31T10:03:10.871Z,10.53
2019-01-31T10:05:52.605Z,11.03
2019-01-31T10:08:31.430Z,11.87
2019-01-31T10:11:04.473Z,9.87
2019-01-31T10:13:46.558Z,10.43
2019-01-31T10:16:40.830Z,13.10
2019-01-31T10:19:19.327Z,10.60
2019-01-31T10:22:15.332Z,11.83
2019-01-31T10:25:06.105Z,10.27
2019-01-31T10:28:12.241Z,9.80
2019-01-31T10:30:57.003Z,11.27
2019-01-31T10:33:29.991Z,12.03
2019-01-31T10:36:21.290Z,13.17
2019-01-31T10:39:30.450Z,14.57
2019-01-31T10:42:24.346Z,15.17
2019-01-31T10:45:17.883Z,14.03
2019-01-31T10:47:59.505Z,13.40
2019-01-31T10:50:44.357Z,16.77
2019-01-31T10:53:35.165Z,16.93
2019-01-31T10:56:20.031Z,20.57
2019-01-31T10:58:53.006Z,15.43
2019-01-31T11:01:37.730Z,17.00
2019-01-31T11:04:16.336Z,19.27
2019-01-31T11:06:58.167Z,17.20
2019-01-31T11:09:37.142Z,17.67
2019-01-31T11:12:19.404Z,25.20
2019-01-31T11:15:04.506Z,24.00
2019-01-31T11:17:43.284Z,21.83
2019-01-31T11:20:34.480Z,42.37
2019-01-31T11:23:16.045Z,30.77
2019-01-31T11:26:06.924Z,32.73
2019-01-31T11:28:54.888Z,36.13
2019-01-31T11:31:42.715Z,37.53
2019-01-31T11:34:33.059Z,43.70
2019-01-31T11:37:07.474Z,38.17
2019-01-31T11:40:01.407Z,34.30
2019-01-31T11:42:34.457Z,38.20
2019-01-31T11:45:07.305Z,31.67
2019-01-31T11:48:08.799Z,34.57
2019-01-31T11:50:57.886Z,28.20
2019-01-31T11:53:36.524Z,30.07
2019-01-31T11:56:44.437Z,29.47
2019-01-31T11:59:14.848Z,31.67
2019-01-31T12:01:45.325Z,29.50
2019-01-31T12:04:15.813Z,30.83
2019-01-31T12:06:46.407Z,33.07
2019-01-31T12:09:17.133Z,39.17
2019-01-31T12:11:47.582Z,35.23
2019-01-31T12:14:18.116Z,38.93
2019-01-31T12:16:48.583Z,37.63
2019-01-31T12:19:19.126Z,40.53
2019-01-31T12:21:49.624Z,35.53
2019-01-31T12:24:20.080Z,33.67
2019-01-31T12:26:50.533Z,34.23
2019-01-31T12:29:21.073Z,36.23
2019-01-31T12:31:52.063Z,34.60
2019-01-31T12:34:22.438Z,30.77
2019-01-31T12:36:52.920Z,30.83
2019-01-31T12:39:23.270Z,38.67
2019-01-31T12:41:53.627Z,34.17
2019-01-31T12:44:24.057Z,35.07
2019-01-31T12:46:54.527Z,41.13
2019-01-31T12:49:24.883Z,41.77
2019-01-31T12:51:55.601Z,49.13
2019-01-31T12:54:26.002Z,51.93
2019-01-31T12:56:56.375Z,43.20
2019-01-31T12:59:26.873Z,45.23
2019-01-31T13:01:57.280Z,52.13
2019-01-31T13:04:27.753Z,48.07
2019-01-31T13:06:58.189Z,35.53
2019-01-31T13:09:31.697Z,32.90
2019-01-31T13:12:02.566Z,39.83
2019-01-31T13:14:32.935Z,44.17
2019-01-31T13:17:03.243Z,27.60
2019-01-31T13:19:33.733Z,25.87
2019-01-31T13:22:04.120Z,26.63
2019-01-31T13:24:34.583Z,27.30
2019-01-31T13:27:06.194Z,20.70
2019-01-31T13:29:36.584Z,23.13
2019-01-31T13:32:07.459Z,24.10
2019-01-31T13:34:37.888Z,26.93
2019-01-31T13:37:08.464Z,32.43
2019-01-31T13:39:38.891Z,34.20
2019-01-31T13:42:09.649Z,29.23
2019-01-31T13:44:42.852Z,25.30
2019-01-31T13:47:13.332Z,25.10
2019-01-31T13:49:43.780Z,28.87
2019-01-31T13:52:14.343Z,68.73
2019-01-31T13:54:44.749Z,26.80
2019-01-31T13:57:15.327Z,25.43
2019-01-31T13:59:45.628Z,30.13
2019-01-31T14:02:16.213Z,28.23
2019-01-31T14:04:46.566Z,36.20
2019-01-31T14:07:17.070Z,24.37
2019-01-31T14:09:47.595Z,24.47
2019-01-31T14:12:17.934Z,25.40
2019-01-31T14:14:48.782Z,20.90
2019-01-31T14:17:19.366Z,22.93
2019-01-31T14:19:49.737Z,22.57
2019-01-31T14:22:20.108Z,27.50
2019-01-31T14:24:50.558Z,20.50
2019-01-31T14:27:20.883Z,21.63
2019-01-31T14:29:52.516Z,19.43
2019-01-31T14:32:23.248Z,24.00
2019-01-31T14:34:53.672Z,20.90
2019-01-31T14:37:24.092Z,21.40
2019-01-31T14:39:54.552Z,25.53
2019-01-31T14:42:26.163Z,27.97
2019-01-31T14:44:56.763Z,25.23
2019-01-31T14:47:27.127Z,21.83
2019-01-31T14:50:10.133Z,23.03
2019-01-31T14:52:40.695Z,22.67
2019-01-31T14:55:12.690Z,16.43
2019-01-31T14:57:43.138Z,21.27
2019-01-31T15:00:19.079Z,24.90
2019-01-31T15:02:49.644Z,23.90
2019-01-31T15:05:21.322Z,23.43
2019-01-31T15:07:51.789Z,15.83
2019-01-31T15:10:30.360Z,19.63
2019-01-31T15:13:00.885Z,20.10
2019-01-31T15:15:31.591Z,18.70
2019-01-31T15:18:02.014Z,22.00
2019-01-31T15:20:38.312Z,17.33
2019-01-31T15:23:07.013Z,16.20
2019-01-31T15:25:37.413Z,20.35
2019-01-31T15:28:08.001Z,18.42
2019-01-31T15:30:41.118Z,21.77
2019-01-31T15:33:13.651Z,13.30
2019-01-31T15:35:44.167Z,22.90
2019-01-31T15:38:14.885Z,23.35
2019-01-31T15:40:49.589Z,24.92
2019-01-31T15:43:20.243Z,17.45
2019-01-31T15:45:53.596Z,21.20
2019-01-31T15:48:24.473Z,24.15
2019-01-31T15:50:55.412Z,30.35
2019-01-31T15:53:25.862Z,20.23
2019-01-31T15:55:56.362Z,24.65
2019-01-31T15:58:26.937Z,21.35
2019-01-31T16:00:57.535Z,21.10
2019-01-31T16:03:29.770Z,39.95
2019-01-31T16:06:00.191Z,15.88
2019-01-31T16:08:30.590Z,13.75
2019-01-31T16:11:01.181Z,23.73
2019-01-31T16:13:31.740Z,20.97
2019-01-31T16:16:02.318Z,17.07
2019-01-31T16:18:33.698Z,25.37
2019-01-31T16:21:04.077Z,22.60
2019-01-31T16:23:34.482Z,17.12
2019-01-31T16:26:05.207Z,18.57
2019-01-31T16:28:35.600Z,14.23
2019-01-31T16:31:06.292Z,14.03
2019-01-31T16:33:36.805Z,13.03
2019-01-31T16:36:07.404Z,21.50
2019-01-31T16:38:38.026Z,19.62
2019-01-31T16:41:08.664Z,14.40
2019-01-31T16:43:39.170Z,14.20
2019-01-31T16:46:12.344Z,16.02
2019-01-31T16:48:42.759Z,14.13
2019-01-31T16:51:13.113Z,21.50
2019-01-31T16:53:44.348Z,15.18
2019-01-31T16:56:14.758Z,17.12
2019-01-31T16:58:45.247Z,19.00
2019-01-31T17:01:18.912Z,24.00
2019-01-31T17:03:49.327Z,22.17
2019-01-31T17:06:19.697Z,14.38
2019-01-31T17:08:50.297Z,16.57
2019-01-31T17:11:20.794Z,18.75
2019-01-31T17:13:51.178Z,17.30
2019-01-31T17:16:22.641Z,15.70
2019-01-31T17:18:54.983Z,18.07
2019-01-31T17:21:25.541Z,16.20
2019-01-31T17:23:55.979Z,11.93
2019-01-31T17:26:26.540Z,11.70
2019-01-31T17:29:01.795Z,11.97
2019-01-31T17:31:34.714Z,18.95
2019-01-31T17:34:11.502Z,14.55
2019-01-31T17:36:41.902Z,19.07
2019-01-31T17:39:12.419Z,15.30
2019-01-31T17:41:42.848Z,17.55
2019-01-31T17:44:13.255Z,20.45
2019-01-31T17:46:43.773Z,15.15
2019-01-31T17:49:14.324Z,15.30
2019-01-31T17:51:44.780Z,16.65
2019-01-31T17:54:15.452Z,15.15
2019-01-31T17:56:47.011Z,17.77
2019-01-31T17:59:17.585Z,11.88
2019-01-31T18:01:48.120Z,16.10
2019-01-31T18:04:18.511Z,14.87
2019-01-31T18:06:48.928Z,21.33
2019-01-31T18:09:20.981Z,13.38
2019-01-31T18:11:51.385Z,15.08
2019-01-31T18:14:21.910Z,16.75
2019-01-31T18:16:52.552Z,17.98
2019-01-31T18:19:25.883Z,9.88
2019-01-31T18:21:56.499Z,15.48
2019-01-31T18:24:30.418Z,15.75
2019-01-31T18:27:00.814Z,18.95
2019-01-31T18:29:32.734Z,22.35
2019-01-31T18:32:05.664Z,15.32
2019-01-31T18:34:35.615Z,9.95
2019-01-31T18:37:06.256Z,11.63
2019-01-31T18:39:36.637Z,15.95
2019-01-31T18:42:06.982Z,10.70
2019-01-31T18:44:37.557Z,13.13
2019-01-31T18:47:07.971Z,11.45
2019-01-31T18:49:38.407Z,18.45
2019-01-31T18:52:08.965Z,10.85
2019-01-31T18:54:41.247Z,10.23
2019-01-31T18:57:12.866Z,17.40
2019-01-31T18:59:44.207Z,9.23
2019-01-31T19:02:15.193Z,8.60
2019-01-31T19:04:45.548Z,17.40
2019-01-31T19:07:16.113Z,8.58
2019-01-31T19:09:46.587Z,18.42
2019-01-31T19:12:17.105Z,18.67
2019-01-31T19:14:49.565Z,32.55
2019-01-31T19:17:20.066Z,19.40
2019-01-31T19:19:51.944Z,15.88
2019-01-31T19:22:23.259Z,14.63
2019-01-31T19:24:53.661Z,10.93
2019-01-31T19:27:26.771Z,13.72
2019-01-31T19:29:57.360Z,12.35
2019-01-31T19:32:27.885Z,10.60
2019-01-31T19:34:58.271Z,12.00
2019-01-31T19:37:30.319Z,12.13
2019-01-31T19:40:03.515Z,8.70
2019-01-31T19:42:33.837Z,13.40
2019-01-31T19:45:04.307Z,18.35
2019-01-31T19:47:34.903Z,19.98
2019-01-31T19:50:07.885Z,22.82
2019-01-31T19:52:38.353Z,11.75
2019-01-31T19:55:08.992Z,18.27
2019-01-31T19:57:39.405Z,13.65
2019-01-31T20:00:16.637Z,12.65
2019-01-31T20:02:47.130Z,15.72
2019-01-31T20:05:17.958Z,9.50
2019-01-31T20:07:48.767Z,22.87
2019-01-31T20:10:27.438Z,18.23
2019-01-31T20:13:00.780Z,19.85
2019-01-31T20:15:31.510Z,17.02
2019-01-31T20:18:02.213Z,14.30
2019-01-31T20:20:32.765Z,22.87
2019-01-31T20:23:03.582Z,22.73
2019-01-31T20:25:34.176Z,9.45
2019-01-31T20:28:04.803Z,11.20
2019-01-31T20:30:36.694Z,19.02
2019-01-31T20:33:12.312Z,9.63
2019-01-31T20:35:45.422Z,25.72
2019-01-31T20:38:16.246Z,23.98
2019-01-31T20:40:48.444Z,18.92
2019-01-31T20:43:19.105Z,19.95
2019-01-31T20:45:49.710Z,17.20
2019-01-31T20:48:20.109Z,22.05
2019-01-31T20:50:50.510Z,12.63
2019-01-31T20:53:21.167Z,16.27
2019-01-31T20:55:54.190Z,19.25
2019-01-31T20:58:26.587Z,13.45
2019-01-31T21:01:00.682Z,10.35
2019-01-31T21:03:36.791Z,12.82
2019-01-31T21:06:07.327Z,13.32
2019-01-31T21:08:38.179Z,12.35
2019-01-31T21:11:08.674Z,11.15
2019-01-31T21:13:39.122Z,15.13
2019-01-31T21:16:09.671Z,17.73
2019-01-31T21:18:44.482Z,14.00
2019-01-31T21:21:14.931Z,12.43
2019-01-31T21:23:51.091Z,13.65
2019-01-31T21:26:24.568Z,11.20
2019-01-31T21:28:53.513Z,21.75
2019-01-31T21:31:23.983Z,15.63
2019-01-31T21:33:54.652Z,16.50
2019-01-31T21:36:30.221Z,18.48
2019-01-31T21:39:00.845Z,22.90
2019-01-31T21:41:31.396Z,17.65
2019-01-31T21:44:01.802Z,31.48
2019-01-31T21:46:39.540Z,33.73
2019-01-31T21:49:09.947Z,31.55
2019-01-31T21:51:40.418Z,30.55
2019-01-31T21:54:11.110Z,31.15
2019-01-31T21:56:41.666Z,33.65
2019-01-31T21:59:12.151Z,36.03
2019-01-31T22:01:42.691Z,36.63
2019-01-31T22:04:13.136Z,33.10
2019-01-31T22:06:43.537Z,30.95
2019-01-31T22:09:14.278Z,43.10
2019-01-31T22:11:46.140Z,38.10
2019-01-31T22:14:16.566Z,32.85
2019-01-31T22:16:48.568Z,42.55
2019-01-31T22:19:20.279Z,33.20
2019-01-31T22:21:50.649Z,34.75
2019-01-31T22:24:21.271Z,31.40
2019-01-31T22:26:51.942Z,28.92
2019-01-31T22:29:22.443Z,39.08
2019-01-31T22:31:53.097Z,26.95
2019-01-31T22:34:23.626Z,29.45
2019-01-31T22:36:54.294Z,32.55
2019-01-31T22:39:26.484Z,38.60
2019-01-31T22:41:57.204Z,33.10
2019-01-31T22:44:30.449Z,31.30
2019-01-31T22:47:00.836Z,31.97
2019-01-31T22:49:31.215Z,37.30
2019-01-31T22:52:04.786Z,40.15
2019-01-31T22:54:38.312Z,34.78
2019-01-31T22:57:08.789Z,47.10
2019-01-31T22:59:39.194Z,36.25
2019-01-31T23:02:10.501Z,41.40
2019-01-31T23:04:43.923Z,41.25
2019-01-31T23:07:14.888Z,42.43
2019-01-31T23:09:45.399Z,31.68
2019-01-31T23:12:16.130Z,31.27
2019-01-31T23:14:47.321Z,35.03
2019-01-31T23:17:18.511Z,43.17
2019-01-31T23:19:48.998Z,39.60
2019-01-31T23:22:19.518Z,42.55
2019-01-31T23:24:49.862Z,39.58
2019-01-31T23:27:20.471Z,40.20
2019-01-31T23:29:52.582Z,43.50
2019-01-31T23:32:23.175Z,46.60
2019-01-31T23:34:53.610Z,43.25
2019-01-31T23:37:24.893Z,39.05
2019-01-31T23:39:57.642Z,39.88
2019-01-31T23:42:27.105Z,54.70
2019-01-31T23:44:57.459Z,48.02
2019-01-31T23:47:28.104Z,53.90
2019-01-31T23:49:58.621Z,48.83
2019-01-31T23:52:29.083Z,46.02
2019-01-31T23:54:59.802Z,47.33
2019-01-31T23:57:31.815Z,54.60
